sensor_id;sensor_type;location;lat;lon;timestamp;pressure;altitude;pressure_sealevel;temperature;humidity
52797;BME280;38666;43.348;12.584;2022-11-24T06:55:03;95370.78;;;8.40;100.00
52797;BME280;38666;43.348;12.584;2022-11-24T06:57:28;95380.88;;;8.47;100.00
52797;BME280;38666;43.348;12.584;2022-11-24T06:59:55;95381.59;;;8.51;100.00
52797;BME280;38666;43.348;12.584;2022-11-24T07:02:21;95394.44;;;8.54;100.00
52797;BME280;38666;43.348;12.584;2022-11-24T07:04:46;95393.31;;;8.55;100.00
52797;BME280;38666;43.348;12.584;2022-11-24T07:07:12;95402.63;;;8.58;100.00
52797;BME280;38666;43.348;12.584;2022-11-24T07:09:37;95399.84;;;8.69;100.00
52797;BME280;38666;43.348;12.584;2022-11-24T07:12:03;95400.22;;;8.75;100.00
52797;BME280;38666;43.348;12.584;2022-11-24T07:14:30;95404.94;;;8.71;100.00
52797;BME280;38666;43.348;12.584;2022-11-24T07:16:55;95404.13;;;8.74;100.00
52797;BME280;38666;43.348;12.584;2022-11-24T07:19:21;95402.16;;;8.78;100.00
52797;BME280;38666;43.348;12.584;2022-11-24T07:21:46;95409.91;;;8.90;100.00
52797;BME280;38666;43.348;12.584;2022-11-24T07:24:12;95406.81;;;8.88;100.00
52797;BME280;38666;43.348;12.584;2022-11-24T07:26:37;95416.50;;;8.97;100.00
52797;BME280;38666;43.348;12.584;2022-11-24T07:29:04;95415.66;;;9.11;100.00
52797;BME280;38666;43.348;12.584;2022-11-24T07:31:30;95426.50;;;9.22;100.00
52797;BME280;38666;43.348;12.584;2022-11-24T07:33:55;95438.13;;;9.30;100.00
52797;BME280;38666;43.348;12.584;2022-11-24T07:36:22;95437.34;;;9.33;100.00
52797;BME280;38666;43.348;12.584;2022-11-24T07:38:49;95439.66;;;9.38;100.00
52797;BME280;38666;43.348;12.584;2022-11-24T07:41:16;95442.78;;;9.40;100.00
52797;BME280;38666;43.348;12.584;2022-11-24T07:43:42;95441.97;;;9.43;100.00
52797;BME280;38666;43.348;12.584;2022-11-24T07:46:10;95437.75;;;9.35;100.00
52797;BME280;38666;43.348;12.584;2022-11-24T07:48:36;95439.75;;;9.16;100.00
52797;BME280;38666;43.348;12.584;2022-11-24T07:51:03;95429.66;;;9.17;100.00
52797;BME280;38666;43.348;12.584;2022-11-24T07:53:29;95434.31;;;9.16;100.00
52797;BME280;38666;43.348;12.584;2022-11-24T07:55:56;95433.47;;;9.30;100.00
52797;BME280;38666;43.348;12.584;2022-11-24T07:58:29;95440.41;;;9.42;100.00
52797;BME280;38666;43.348;12.584;2022-11-24T08:00:55;95440.47;;;9.35;100.00
52797;BME280;38666;43.348;12.584;2022-11-24T08:03:21;95446.66;;;9.35;100.00
52797;BME280;38666;43.348;12.584;2022-11-24T08:05:57;95445.91;;;9.35;100.00
52797;BME280;38666;43.348;12.584;2022-11-24T08:08:23;95450.16;;;9.39;100.00
52797;BME280;38666;43.348;12.584;2022-11-24T08:10:49;95450.97;;;9.33;100.00
52797;BME280;38666;43.348;12.584;2022-11-24T08:13:14;95456.88;;;9.24;100.00
52797;BME280;38666;43.348;12.584;2022-11-24T08:15:40;95458.38;;;9.32;100.00
52797;BME280;38666;43.348;12.584;2022-11-24T08:18:05;95465.72;;;9.43;100.00
52797;BME280;38666;43.348;12.584;2022-11-24T08:20:31;95449.28;;;9.57;100.00
52797;BME280;38666;43.348;12.584;2022-11-24T08:22:57;95460.59;;;9.56;100.00
52797;BME280;38666;43.348;12.584;2022-11-24T08:25:27;95463.22;;;9.70;100.00
52797;BME280;38666;43.348;12.584;2022-11-24T08:28:00;95467.47;;;9.75;100.00
52797;BME280;38666;43.348;12.584;2022-11-24T08:30:26;95464.31;;;9.84;100.00
52797;BME280;38666;43.348;12.584;2022-11-24T08:32:52;95467.41;;;9.86;100.00
52797;BME280;38666;43.348;12.584;2022-11-24T08:35:18;95462.81;;;9.75;100.00
52797;BME280;38666;43.348;12.584;2022-11-24T08:37:43;95467.50;;;9.71;99.75
52797;BME280;38666;43.348;12.584;2022-11-24T08:40:09;95476.34;;;9.90;99.27
52797;BME280;38666;43.348;12.584;2022-11-24T08:42:35;95486.44;;;9.97;98.52
52797;BME280;38666;43.348;12.584;2022-11-24T08:45:00;95502.34;;;10.06;98.74
52797;BME280;38666;43.348;12.584;2022-11-24T08:47:26;95503.91;;;10.07;99.15
52797;BME280;38666;43.348;12.584;2022-11-24T08:49:51;95511.75;;;9.97;99.44
52797;BME280;38666;43.348;12.584;2022-11-24T08:52:16;95512.50;;;10.02;99.56
52797;BME280;38666;43.348;12.584;2022-11-24T08:54:42;95510.25;;;9.89;100.00
52797;BME280;38666;43.348;12.584;2022-11-24T08:57:10;95511.75;;;9.97;100.00
52797;BME280;38666;43.348;12.584;2022-11-24T08:59:35;95521.81;;;10.08;100.00
52797;BME280;38666;43.348;12.584;2022-11-24T09:02:01;95525.38;;;10.01;99.84
52797;BME280;38666;43.348;12.584;2022-11-24T09:04:26;95532.38;;;10.02;100.00
52797;BME280;38666;43.348;12.584;2022-11-24T09:06:52;95529.25;;;10.04;100.00
52797;BME280;38666;43.348;12.584;2022-11-24T09:09:17;95526.41;;;10.22;100.00
52797;BME280;38666;43.348;12.584;2022-11-24T09:11:43;95529.72;;;9.91;98.04
52797;BME280;38666;43.348;12.584;2022-11-24T09:14:08;95521.31;;;10.20;97.50
52797;BME280;38666;43.348;12.584;2022-11-24T09:16:34;95530.88;;;10.51;97.19
52797;BME280;38666;43.348;12.584;2022-11-24T09:19:04;95532.97;;;10.78;92.27
52797;BME280;38666;43.348;12.584;2022-11-24T09:21:31;95541.53;;;10.83;92.25
52797;BME280;38666;43.348;12.584;2022-11-24T09:23:57;95538.84;;;11.15;91.76
52797;BME280;38666;43.348;12.584;2022-11-24T09:26:29;95542.97;;;10.95;89.53
52797;BME280;38666;43.348;12.584;2022-11-24T09:28:56;95543.97;;;10.70;91.01
52797;BME280;38666;43.348;12.584;2022-11-24T09:31:25;95542.91;;;10.61;92.61
52797;BME280;38666;43.348;12.584;2022-11-24T09:33:51;95540.94;;;10.61;95.52
52797;BME280;38666;43.348;12.584;2022-11-24T09:36:17;95544.97;;;10.91;95.21
52797;BME280;38666;43.348;12.584;2022-11-24T09:38:43;95544.44;;;11.42;88.43
52797;BME280;38666;43.348;12.584;2022-11-24T09:52:40;95538.31;;;19.68;48.95
52797;BME280;38666;43.348;12.584;2022-11-24T09:58:19;95535.34;;;20.43;43.25
52797;BME280;38666;43.348;12.584;2022-11-24T10:00:47;95540.50;;;19.45;45.36
52797;BME280;38666;43.348;12.584;2022-11-24T10:03:38;95539.31;;;19.18;46.88
52797;BME280;38666;43.348;12.584;2022-11-24T10:06:29;95530.75;;;20.89;43.85
52797;BME280;38666;43.348;12.584;2022-11-24T10:09:06;95537.63;;;22.33;39.49
52797;BME280;38666;43.348;12.584;2022-11-24T10:16:47;95532.28;;;17.16;50.27
52797;BME280;38666;43.348;12.584;2022-11-24T10:27:32;95522.16;;;17.90;51.26
52797;BME280;38666;43.348;12.584;2022-11-24T10:29:59;95513.22;;;19.71;45.77
52797;BME280;38666;43.348;12.584;2022-11-24T10:32:26;95522.59;;;20.61;43.40
52797;BME280;38666;43.348;12.584;2022-11-24T10:34:59;95526.16;;;20.27;44.20
52797;BME280;38666;43.348;12.584;2022-11-24T10:37:41;95511.91;;;19.29;45.93
52797;BME280;38666;43.348;12.584;2022-11-24T10:40:21;95521.75;;;18.01;48.09
52797;BME280;38666;43.348;12.584;2022-11-24T10:42:48;95516.53;;;17.39;49.97
52797;BME280;38666;43.348;12.584;2022-11-24T10:45:16;95514.13;;;17.73;50.02
52797;BME280;38666;43.348;12.584;2022-11-24T10:47:43;95502.91;;;20.25;45.04
52797;BME280;38666;43.348;12.584;2022-11-24T10:50:20;95506.34;;;22.39;39.11
52797;BME280;38666;43.348;12.584;2022-11-24T10:52:50;95498.56;;;21.76;40.11
52797;BME280;38666;43.348;12.584;2022-11-24T10:55:19;95499.75;;;21.85;39.39
52797;BME280;38666;43.348;12.584;2022-11-24T10:57:45;95493.16;;;20.39;41.15
52797;BME280;38666;43.348;12.584;2022-11-24T11:00:29;95491.66;;;20.28;42.92
52797;BME280;38666;43.348;12.584;2022-11-24T11:05:43;95497.84;;;24.11;35.09
52797;BME280;38666;43.348;12.584;2022-11-24T11:08:17;95492.84;;;25.03;34.29
52797;BME280;38666;43.348;12.584;2022-11-24T11:10:49;95490.97;;;25.95;32.21
52797;BME280;38666;43.348;12.584;2022-11-24T11:15:47;95503.13;;;26.55;29.62
52797;BME280;38666;43.348;12.584;2022-11-24T11:18:15;95492.06;;;28.75;26.97
52797;BME280;38666;43.348;12.584;2022-11-24T11:20:49;95502.88;;;29.15;26.24
52797;BME280;38666;43.348;12.584;2022-11-24T11:23:25;95504.44;;;25.68;30.28
52797;BME280;38666;43.348;12.584;2022-11-24T11:29:14;95497.94;;;25.10;31.07
52797;BME280;38666;43.348;12.584;2022-11-24T11:31:40;95490.44;;;26.20;29.95
52797;BME280;38666;43.348;12.584;2022-11-24T11:36:46;95502.63;;;25.59;29.39
52797;BME280;38666;43.348;12.584;2022-11-24T11:45:02;95497.56;;;25.64;29.73
52797;BME280;38666;43.348;12.584;2022-11-24T11:47:38;95496.25;;;25.47;29.30
52797;BME280;38666;43.348;12.584;2022-11-24T11:50:21;95489.59;;;24.67;31.83
52797;BME280;38666;43.348;12.584;2022-11-24T11:55:25;95492.72;;;26.27;28.42
52797;BME280;38666;43.348;12.584;2022-11-24T11:58:06;95494.22;;;28.07;25.81
52797;BME280;38666;43.348;12.584;2022-11-24T12:00:44;95473.91;;;29.39;25.25
52797;BME280;38666;43.348;12.584;2022-11-24T12:19:47;95504.75;;;24.48;30.82
52797;BME280;38666;43.348;12.584;2022-11-24T12:30:17;95500.03;;;22.95;35.44
52797;BME280;38666;43.348;12.584;2022-11-24T12:35:43;95485.59;;;25.63;31.35
52797;BME280;38666;43.348;12.584;2022-11-24T12:45:59;95490.84;;;30.19;24.61
52797;BME280;38666;43.348;12.584;2022-11-24T12:51:02;95493.84;;;28.53;26.78
52797;BME280;38666;43.348;12.584;2022-11-24T12:53:31;95509.63;;;27.94;27.21
52797;BME280;38666;43.348;12.584;2022-11-24T12:56:06;95497.41;;;28.98;26.10
52797;BME280;38666;43.348;12.584;2022-11-24T13:12:53;95529.28;;;22.84;33.61
52797;BME280;38666;43.348;12.584;2022-11-24T13:15:19;95534.03;;;22.12;35.03
52797;BME280;38666;43.348;12.584;2022-11-24T13:17:44;95521.72;;;21.43;37.95
52797;BME280;38666;43.348;12.584;2022-11-24T13:22:57;95541.00;;;20.15;40.78
52797;BME280;38666;43.348;12.584;2022-11-24T13:25:25;95536.06;;;19.47;42.34
52797;BME280;38666;43.348;12.584;2022-11-24T13:27:53;95550.66;;;19.10;42.63
52797;BME280;38666;43.348;12.584;2022-11-24T13:49:22;95539.31;;;29.20;22.30
52797;BME280;38666;43.348;12.584;2022-11-24T13:51:52;95538.56;;;29.39;22.58
52797;BME280;38666;43.348;12.584;2022-11-24T13:54:18;95530.50;;;30.21;21.67
52797;BME280;38666;43.348;12.584;2022-11-24T13:56:44;95541.22;;;30.69;20.37
52797;BME280;38666;43.348;12.584;2022-11-24T13:59:24;95537.66;;;28.87;22.48
52797;BME280;38666;43.348;12.584;2022-11-24T14:01:57;95545.25;;;27.69;24.41
52797;BME280;38666;43.348;12.584;2022-11-24T14:04:24;95546.44;;;28.52;23.50
52797;BME280;38666;43.348;12.584;2022-11-24T14:14:29;95546.56;;;28.04;23.77
52797;BME280;38666;43.348;12.584;2022-11-24T14:19:45;95553.91;;;28.69;22.97
52797;BME280;38666;43.348;12.584;2022-11-24T14:22:17;95556.53;;;29.36;23.05
52797;BME280;38666;43.348;12.584;2022-11-24T14:24:44;95553.47;;;29.53;21.74
52797;BME280;38666;43.348;12.584;2022-11-24T14:27:13;95569.13;;;29.49;22.46
52797;BME280;38666;43.348;12.584;2022-11-24T14:29:51;95573.97;;;28.54;22.83
52797;BME280;38666;43.348;12.584;2022-11-24T14:32:17;95570.72;;;28.13;23.77
52797;BME280;38666;43.348;12.584;2022-11-24T14:34:43;95573.03;;;28.45;23.27
52797;BME280;38666;43.348;12.584;2022-11-24T14:37:08;95572.34;;;28.64;23.63
52797;BME280;38666;43.348;12.584;2022-11-24T14:39:39;95563.09;;;28.08;24.06
52797;BME280;38666;43.348;12.584;2022-11-24T14:42:15;95566.47;;;28.00;24.07
52797;BME280;38666;43.348;12.584;2022-11-24T14:44:57;95566.72;;;28.33;23.93
52797;BME280;38666;43.348;12.584;2022-11-24T14:47:29;95564.94;;;28.36;23.14
52797;BME280;38666;43.348;12.584;2022-11-24T14:49:55;95571.88;;;28.60;23.23
52797;BME280;38666;43.348;12.584;2022-11-24T14:52:22;95566.38;;;27.75;24.01
52797;BME280;38666;43.348;12.584;2022-11-24T14:54:57;95574.91;;;28.00;23.88
52797;BME280;38666;43.348;12.584;2022-11-24T14:57:30;95577.06;;;27.23;25.17
52797;BME280;38666;43.348;12.584;2022-11-24T15:00:31;95574.31;;;27.12;25.66
52797;BME280;38666;43.348;12.584;2022-11-24T15:05:52;95571.31;;;26.87;26.01
52797;BME280;38666;43.348;12.584;2022-11-24T15:08:18;95575.88;;;25.75;27.15
52797;BME280;38666;43.348;12.584;2022-11-24T15:10:44;95571.53;;;25.07;28.43
52797;BME280;38666;43.348;12.584;2022-11-24T15:13:19;95589.16;;;23.84;29.93
52797;BME280;38666;43.348;12.584;2022-11-24T15:16:33;95591.13;;;22.73;31.87
52797;BME280;38666;43.348;12.584;2022-11-24T15:18:43;95588.59;;;20.90;35.01
52797;BME280;38666;43.348;12.584;2022-11-24T15:21:10;95591.66;;;18.93;39.15
52797;BME280;38666;43.348;12.584;2022-11-24T15:23:38;95591.16;;;18.03;41.57
52797;BME280;38666;43.348;12.584;2022-11-24T15:28:35;95602.00;;;16.68;44.88
52797;BME280;38666;43.348;12.584;2022-11-24T15:31:02;95608.69;;;16.15;46.68
52797;BME280;38666;43.348;12.584;2022-11-24T15:33:28;95614.00;;;15.80;47.81
52797;BME280;38666;43.348;12.584;2022-11-24T15:35:54;95612.50;;;15.62;49.51
52797;BME280;38666;43.348;12.584;2022-11-24T15:38:20;95622.59;;;15.52;50.38
52797;BME280;38666;43.348;12.584;2022-11-24T15:40:47;95618.91;;;15.42;50.44
52797;BME280;38666;43.348;12.584;2022-11-24T15:45:45;95637.19;;;14.69;53.14
52797;BME280;38666;43.348;12.584;2022-11-24T15:48:10;95635.66;;;14.31;55.26
52797;BME280;38666;43.348;12.584;2022-11-24T15:50:36;95640.66;;;14.36;55.17
52797;BME280;38666;43.348;12.584;2022-11-24T15:53:03;95647.66;;;14.20;55.86
52797;BME280;38666;43.348;12.584;2022-11-24T15:55:29;95652.88;;;13.94;56.33
52797;BME280;38666;43.348;12.584;2022-11-24T15:57:54;95660.84;;;13.68;57.24
52797;BME280;38666;43.348;12.584;2022-11-24T16:00:21;95655.19;;;13.55;58.26
52797;BME280;38666;43.348;12.584;2022-11-24T16:02:48;95669.78;;;13.48;58.67
52797;BME280;38666;43.348;12.584;2022-11-24T16:05:15;95679.16;;;13.27;59.58
52797;BME280;38666;43.348;12.584;2022-11-24T16:07:41;95685.59;;;13.17;59.91
52797;BME280;38666;43.348;12.584;2022-11-24T16:10:17;95683.63;;;13.17;59.86
52797;BME280;38666;43.348;12.584;2022-11-24T16:12:45;95681.31;;;13.16;59.50
52797;BME280;38666;43.348;12.584;2022-11-24T16:15:11;95675.28;;;13.00;60.16
52797;BME280;38666;43.348;12.584;2022-11-24T16:17:36;95687.50;;;12.96;60.81
52797;BME280;38666;43.348;12.584;2022-11-24T16:20:02;95685.13;;;12.70;61.84
52797;BME280;38666;43.348;12.584;2022-11-24T16:22:27;95680.94;;;12.62;62.53
52797;BME280;38666;43.348;12.584;2022-11-24T16:24:53;95689.16;;;12.62;63.16
52797;BME280;38666;43.348;12.584;2022-11-24T16:27:18;95685.88;;;12.43;63.20
52797;BME280;38666;43.348;12.584;2022-11-24T16:29:43;95682.84;;;12.37;63.72
52797;BME280;38666;43.348;12.584;2022-11-24T16:32:09;95682.91;;;12.34;64.02
52797;BME280;38666;43.348;12.584;2022-11-24T16:34:34;95689.84;;;12.11;64.65
52797;BME280;38666;43.348;12.584;2022-11-24T16:37:00;95679.59;;;12.15;64.90
52797;BME280;38666;43.348;12.584;2022-11-24T16:39:25;95683.56;;;12.10;64.89
52797;BME280;38666;43.348;12.584;2022-11-24T16:41:50;95682.38;;;12.11;64.89
52797;BME280;38666;43.348;12.584;2022-11-24T16:44:16;95680.16;;;11.99;65.50
52797;BME280;38666;43.348;12.584;2022-11-24T16:46:41;95684.81;;;12.02;65.42
52797;BME280;38666;43.348;12.584;2022-11-24T16:49:07;95686.53;;;11.88;66.14
52797;BME280;38666;43.348;12.584;2022-11-24T16:51:33;95686.72;;;11.70;67.63
52797;BME280;38666;43.348;12.584;2022-11-24T16:54:00;95686.78;;;11.63;67.66
52797;BME280;38666;43.348;12.584;2022-11-24T16:56:26;95684.53;;;11.54;68.45
52797;BME280;38666;43.348;12.584;2022-11-24T16:58:52;95698.53;;;11.60;68.33
52797;BME280;38666;43.348;12.584;2022-11-24T17:01:18;95693.94;;;11.53;69.23
52797;BME280;38666;43.348;12.584;2022-11-24T17:03:44;95695.13;;;11.52;69.12
52797;BME280;38666;43.348;12.584;2022-11-24T17:06:12;95693.25;;;11.41;69.62
52797;BME280;38666;43.348;12.584;2022-11-24T17:08:40;95703.50;;;11.30;70.12
52797;BME280;38666;43.348;12.584;2022-11-24T17:13:34;95686.41;;;11.18;70.75
52797;BME280;38666;43.348;12.584;2022-11-24T17:16:04;95689.22;;;11.11;70.50
52797;BME280;38666;43.348;12.584;2022-11-24T17:18:30;95689.59;;;11.10;71.98
52797;BME280;38666;43.348;12.584;2022-11-24T17:20:57;95695.25;;;10.91;73.20
52797;BME280;38666;43.348;12.584;2022-11-24T17:23:23;95695.28;;;10.84;73.36
52797;BME280;38666;43.348;12.584;2022-11-24T17:25:48;95694.47;;;10.87;73.86
52797;BME280;38666;43.348;12.584;2022-11-24T17:28:14;95696.88;;;10.78;74.31
52797;BME280;38666;43.348;12.584;2022-11-24T17:30:39;95696.91;;;10.74;74.33
52797;BME280;38666;43.348;12.584;2022-11-24T17:33:05;95703.19;;;10.67;74.56
52797;BME280;38666;43.348;12.584;2022-11-24T17:35:32;95696.97;;;10.59;75.27
52797;BME280;38666;43.348;12.584;2022-11-24T17:37:58;95699.38;;;10.46;75.66
52797;BME280;38666;43.348;12.584;2022-11-24T17:40:25;95706.81;;;10.42;76.48
52797;BME280;38666;43.348;12.584;2022-11-24T17:42:50;95707.19;;;10.44;76.10
52797;BME280;38666;43.348;12.584;2022-11-24T17:45:15;95709.91;;;10.44;76.21
52797;BME280;38666;43.348;12.584;2022-11-24T17:47:41;95712.69;;;10.37;76.35
52797;BME280;38666;43.348;12.584;2022-11-24T17:50:07;95717.03;;;10.23;78.19
52797;BME280;38666;43.348;12.584;2022-11-24T17:52:33;95718.22;;;10.19;77.93
52797;BME280;38666;43.348;12.584;2022-11-24T17:54:58;95714.78;;;10.04;77.23
52797;BME280;38666;43.348;12.584;2022-11-24T17:57:24;95717.59;;;9.74;79.57
52797;BME280;38666;43.348;12.584;2022-11-24T17:59:51;95725.38;;;9.76;80.08
52797;BME280;38666;43.348;12.584;2022-11-24T18:02:17;95727.69;;;9.81;79.80
52797;BME280;38666;43.348;12.584;2022-11-24T18:04:43;95737.84;;;9.73;79.81
52797;BME280;38666;43.348;12.584;2022-11-24T18:07:08;95740.97;;;9.68;79.53
52797;BME280;38666;43.348;12.584;2022-11-24T18:09:34;95755.81;;;9.53;80.87
52797;BME280;38666;43.348;12.584;2022-11-24T18:11:59;95760.88;;;9.47;82.02
52797;BME280;38666;43.348;12.584;2022-11-24T18:14:25;95760.47;;;9.63;81.17
52797;BME280;38666;43.348;12.584;2022-11-24T18:16:50;95769.78;;;9.69;80.46
52797;BME280;38666;43.348;12.584;2022-11-24T18:19:15;95770.59;;;9.66;80.54
52797;BME280;38666;43.348;12.584;2022-11-24T18:21:41;95769.81;;;9.55;80.64
52797;BME280;38666;43.348;12.584;2022-11-24T18:24:09;95761.25;;;9.45;81.71
52797;BME280;38666;43.348;12.584;2022-11-24T18:26:36;95772.94;;;9.42;82.80
52797;BME280;38666;43.348;12.584;2022-11-24T18:29:02;95760.47;;;9.41;82.77
52797;BME280;38666;43.348;12.584;2022-11-24T18:31:28;95768.66;;;9.34;83.41
52797;BME280;38666;43.348;12.584;2022-11-24T18:33:55;95776.03;;;9.30;83.54
52797;BME280;38666;43.348;12.584;2022-11-24T18:36:21;95783.84;;;9.27;83.74
52797;BME280;38666;43.348;12.584;2022-11-24T18:38:49;95785.41;;;9.29;83.63
52797;BME280;38666;43.348;12.584;2022-11-24T18:41:16;95788.50;;;9.31;83.80
52797;BME280;38666;43.348;12.584;2022-11-24T18:43:42;95793.19;;;9.37;83.32
52797;BME280;38666;43.348;12.584;2022-11-24T18:46:15;95796.69;;;9.38;83.00
52797;BME280;38666;43.348;12.584;2022-11-24T18:48:42;95793.97;;;9.31;83.42
52797;BME280;38666;43.348;12.584;2022-11-24T18:51:08;95797.84;;;9.15;84.50
